• Join FlightAware (Why Join?)
  • Login
  • US Flag 
02:02AM EDT


 

Airport Tracker/Info


-or-


 

Live Flight TrackerFlight Track Log ✈ SWA757 ✈ 14-Apr-2013 ✈ KSJC - KSAN

Flight Track Log - Related Links

Times and Time Zones

All times are in EDT time to prevent confusion due to time zone crossing. See the SWA757 flight status page for this flight to view local times or setup timezone preferences in your user account.

Time Position Orientation Groundspeed Altitude Reporting Facility
EDT Latitude Longitude Course Direction KTS MPH feet Rate Location/Type
11:21PM 37.3833 -121.9500 16° North 134 154 1,700  Level Northern Cal TRACON
11:23PM 37.4517 -121.9261 16° North 227 261 8,400 2,940 Climbing Oakland Center
11:24PM 37.3731 -121.8378 138° Southeast 330 380 11,200 3,120 Climbing Oakland Center
11:25PM 37.2947 -121.7589 141° Southeast 374 430 14,800 3,300 Climbing Oakland Center
11:26PM 37.2142 -121.6597 136° Southeast 399 459 18,000 3,060 Climbing Oakland Center
11:27PM 37.1269 -121.5569 137° Southeast 427 491 21,100 2,940 Climbing Oakland Center
11:28PM 37.0272 -121.4483 139° Southeast 451 519 24,000 2,700 Climbing Oakland Center
11:29PM 36.9300 -121.3439 139° Southeast 462 532 26,700 2,520 Climbing Oakland Center
11:30PM 36.8314 -121.2364 139° Southeast 469 540 29,200 2,220 Climbing Oakland Center
11:31PM 36.7378 -121.1383 140° Southeast 473 544 31,200 2,160 Climbing Oakland Center
11:32PM 36.6156 -121.0081 139° Southeast 481 554 33,600 1,920 Climbing Oakland Center
11:33PM 36.5144 -120.8964 138° Southeast 484 557 35,200 1,320 Climbing Oakland Center
11:34PM 36.4100 -120.7847 139° Southeast 494 568 36,400 1,320 Climbing Oakland Center
11:35PM 36.3044 -120.6697 139° Southeast 503 579 37,900 1,260 Climbing Oakland Center
11:36PM 36.1983 -120.5594 140° Southeast 500 575 39,000 540 Climbing Oakland Center
11:37PM 36.0911 -120.4433 139° Southeast 509 586 39,000  Level Oakland Center
11:38PM 35.9842 -120.3317 140° Southeast 503 579 39,000  Level Oakland Center
11:39PM 35.8783 -120.2214 140° Southeast 497 572 39,000  Level Oakland Center
11:40PM 35.7722 -120.1106 140° Southeast 496 571 39,000  Level Oakland Center
11:41PM 35.6672 -119.9986 139° Southeast 494 568 39,000  Level Oakland Center
11:42PM 35.5567 -119.8997 144° Southeast 488 562 39,000  Level Oakland Center
11:43PM 35.4453 -119.8053 145° Southeast 483 556 39,000  Level Oakland Center
11:44PM 35.3128 -119.6903 145° Southeast 484 557 39,000  Level Los Angeles Center
11:45PM 35.2036 -119.5961 145° Southeast 480 552 39,000  Level Los Angeles Center
11:46PM 35.0922 -119.5011 145° Southeast 483 556 39,000  Level Los Angeles Center
11:47PM 35.0036 -119.4253 145° Southeast 485 558 39,000  Level Los Angeles Center
11:49PM 34.8694 -119.3125 145° Southeast 487 560 39,000  Level Los Angeles Center
11:50PM 34.7356 -119.1992 145° Southeast 487 560 39,000  Level Los Angeles Center
11:51PM 34.6342 -119.1131 145° Southeast 484 557 39,000  Level Los Angeles Center
11:52PM 34.5233 -119.0222 146° Southeast 481 554 39,000  Level Los Angeles Center
11:53PM 34.4139 -118.9311 146° Southeast 479 551 39,000  Level Los Angeles Center
11:54PM 34.3086 -118.8331 142° Southeast 478 550 39,000  Level Los Angeles Center
11:55PM 34.1903 -118.7044 138° Southeast 479 551 39,000  Level Los Angeles Center
11:56PM 34.1097 -118.6206 139° Southeast 477 549 39,000 -900 Level Los Angeles Center
11:57PM 33.9919 -118.4964 139° Southeast 470 541 37,200 -2,220 Descending Los Angeles Center
11:58PM 33.8997 -118.3886 136° Southeast 460 529 34,500 -2,880 Descending Los Angeles Center
11:59PM 33.8108 -118.2778 134° Southeast 476 548 31,400 -2,760 Descending Los Angeles Center
12:00AM 33.7139 -118.1511 133° Southeast 473 544 28,800 -2,160 Descending Los Angeles Center
12:01AM 33.6261 -118.0400 133° Southeast 458 527 27,000 -1,860 Descending Los Angeles Center
12:02AM 33.5400 -117.9314 134° Southeast 449 517 25,100 -1,980 Descending Los Angeles Center
12:03AM 33.4572 -117.8275 134° Southeast 434 499 23,000 -2,280 Descending Los Angeles Center
12:04AM 33.3833 -117.7167 129° Southeast 416 479 20,800 -2,340 Descending Southern California TRACON
12:05AM 33.3000 -117.6333 140° Southeast 404 465 18,700 -2,100 Descending Southern California TRACON
12:06AM 33.2167 -117.5333 135° Southeast 398 458 16,600 -1,860 Descending Southern California TRACON
12:07AM 33.1333 -117.4667 146° Southeast 389 448 15,000 -1,920 Descending Southern California TRACON
12:08AM 33.0333 -117.4000 151° Southeast 377 434 12,800 -2,100 Descending Southern California TRACON
12:08AM 33.0264 -117.3792 112° Southeast 380 437 12,400 -2,100 Descending Los Angeles Center
12:09AM 32.9500 -117.3167 146° Southeast 372 428 10,700 -1,740 Descending Southern California TRACON
12:10AM 32.8833 -117.2500 140° Southeast 347 399 9,400 -1,020 Descending Southern California TRACON
12:10AM 32.8742 -117.2269 115° Southeast 356 410 9,400 -1,140 Level Los Angeles Center
12:11AM 32.8106 -117.1467 133° Southeast 321 369 7,900 -1,800 Descending Los Angeles Center
12:12AM 32.7667 -117.0833 129° Southeast 303 349 6,400 -1,200 Descending Southern California TRACON
12:13AM 32.7333 -117.0000 115° Southeast 257 296 5,900 -840 Descending Southern California TRACON
12:14AM 32.7167 -116.9333 107° East 213 245 4,800 -960 Descending Southern California TRACON
12:15AM 32.6833 -116.9500 203° Southwest 196 226 4,000 -900 Descending Southern California TRACON
12:16AM 32.6833 -117.0000 270° West 166 191 3,100 -900 Descending Southern California TRACON
12:17AM 32.7000 -117.0500 292° West 160 184 2,300 -840 Descending Southern California TRACON
12:18AM 32.7167 -117.1000 292° West 134 154 1,500 -780 Descending Southern California TRACON
12:19AM 32.7167 -117.1500 270° West 134 154 800 -600 Descending Southern California TRACON
12:20AM 32.7267 -117.1608 318° Northwest 137 158 500 -420 Descending Los Angeles Center
12:22AM 32.7333 -117.1833 275° West  Level FlightAware Approximate